ДАННЫЕ О ПОГОДЕ

ВЧЕРА
Time Темп. Т росы. Влаж. Направле Скорость в Wind gust Давл. 1h Prec. 24h Prec.
00:08 3.3 2.9 97 0 0 1018.6 0.0000 0.0000
00:22 3.3 2.9 97 0 0 1018.6 0.0000 0.0000
00:32 3.3 2.9 97 0 0 1018.5 0.0000 0.0000
00:58 3.3 2.9 97 0 0 1018.3 0.0000 0.0000
01:07 3.3 2.9 97 0 0 1018.2 0.0000 0.0000
01:18 3.3 2.9 97 0 0 1018 0.0000 0.0000
01:28 3.2 2.8 97 0 0 1017.9 0.0000 0.0000
01:38 3.2 2.8 97 0 0 1017.9 0.0000 0.0000
01:58 3.2 2.8 97 0 0 1017.6 0.0000 0.0000
02:08 3.1 2.7 97 0 0 1017.3 0.0000 0.0000
02:18 3.1 2.7 97 0 0 1017.3 0.0000 0.0000
02:29 3.1 2.7 97 0 0 1017.2 0.0000 0.0000
02:39 3.1 2.7 97 0 0 1017.1 0.0000 0.0000
02:48 3.1 2.7 97 0 0 1017.1 0.0000 0.0000
03:04 3.1 2.7 97 0 0 1016.9 0.0000 0.0000
03:14 3.1 2.7 97 0 0 1016.8 0.0000 0.0000
03:29 3.2 2.8 97 0 0 1016.6 0.0000 0.0000
03:39 3.2 2.8 97 0 0 1016.6 0.0000 0.0000
03:49 3.2 2.8 97 0 0 1016.4 0.0000 0.0000
04:04 3.2 2.8 97 0 0 1016.3 0.1010 0.1000
04:15 3.2 2.8 97 0 0 1016.2 0.1010 0.1000
04:29 3.2 2.8 97 0 0 1016.2 0.1010 0.1000
04:39 3.2 2.8 97 0 0 1016.1 0.1010 0.1000
04:50 3.2 2.8 97 0 0 1016.1 0.1010 0.1000
05:00 3.2 2.8 97 0 0 1016.1 0.0000 0.1000
05:09 3.2 2.8 97 0 0 1016 0.0000 0.1000
05:19 3.2 2.8 97 0 0 1015.9 0.0000 0.1000
05:30 3.2 2.8 97 0 0 1015.9 0.0000 0.1000
05:40 3.3 2.9 97 0 0 1015.8 0.0000 0.1000
05:50 3.2 2.8 97 0 0 1015.8 0.0000 0.1000
06:00 3.2 2.6 96 0 0 1015.7 0.0000 0.1000
06:25 3.2 2.6 96 0 0 1015.7 0.0000 0.1000
06:36 3.2 2.6 96 0 0 1015.7 0.0000 0.1000
06:46 3.2 2.6 96 0 0 1015.8 0.0000 0.1000
07:05 3.2 2.6 96 0 0 1015.7 0.0000 0.1000
07:16 3.1 2.5 96 0 0 1015.5 0.0000 0.1000
07:26 3 2.4 96 0 0 1015.4 0.0000 0.1000
07:36 3 2.4 96 0 0 1015.4 0.0000 0.1000
07:56 2.6 2 96 0 0 1015.4 0.0000 0.1000
08:06 2.5 1.9 96 0 0 1015.5 0.0000 0.1000
08:16 2.5 1.9 96 0 0 1015.6 0.0000 0.1000
08:27 2.4 1.8 96 0 0 1015.6 0.0000 0.1000
08:36 2.2 1.6 96 0 0 1015.7 0.0000 0.1000
08:46 2.1 1.5 96 0 0 1015.9 0.0000 0.1000
08:57 2.3 1.7 96 0 0 1015.9 0.0000 0.1000
09:07 2.6 2 96 0 0 1015.9 0.0000 0.1000
09:17 3 2.4 96 0 0 1015.9 0.0000 0.1000
09:26 3.3 2.9 97 0 0 1015.9 0.0000 0.1000
09:37 3.8 3.4 97 0 0 1015.8 0.0000 0.1000
09:52 4.8 4.4 97 0 0 1015.8 0.0000 0.1000
10:02 5.2 4.8 97 0 0 1015.7 0.0000 0.1000
10:17 5.9 5.5 97 0 0 1015.7 0.0000 0.1000
10:27 6.5 5.9 96 0 0 1015.6 0.0000 0.1000
10:38 7.3 6.7 96 0 0 1015.8 0.0000 0.1000
10:48 8 7.4 96 0 0 1016 0.0000 0.1000
10:58 8.6 7.8 95 0 0 1015.9 0.0000 0.1000
11:08 9.1 8.2 94 0 0 1016 0.0000 0.1000
11:18 9.5 8.1 91 0 0 1015.8 0.0000 0.1000
11:28 9.9 8.2 89 0 0 1015.7 0.0000 0.1000
11:38 10.3 8.1 86 0 0 1015.6 0.0000 0.1000
11:48 10.7 8.3 85 0 0 1015.5 0.0000 0.1000
11:59 11 8.2 83 0 0 1015.4 0.0000 0.1000
12:09 11.3 8.2 81 0 0 1015.3 0.0000 0.1000
12:18 11.3 8 80 0 0 1015.1 0.0000 0.1000
12:28 11.5 8.2 80 0 0 1015 0.0000 0.1000
12:39 11.6 8.1 79 0 0 1014.9 0.0000 0.1000
12:49 11.8 8.1 78 0 0 1014.8 0.0000 0.1000
12:59 11.6 7.7 77 0 0 1014.8 0.0000 0.1000
13:09 11.5 8 79 0 0 1014.6 0.0000 0.1000
13:20 11.7 8.2 79 0 0 1014.4 0.0000 0.1000
13:44 11.9 8.2 78 0 0 1014 0.0000 0.1000
13:55 11.9 8.2 78 0 0 1014 0.0000 0.1000
14:05 11.8 8.1 78 0 0 1014.1 0.0000 0.1000
14:15 11.8 8.3 79 0 0 1014.1 0.0000 0.1000
14:30 11.5 7.8 78 0 0 1013.9 0.0000 0.1000
14:40 11.4 7.9 79 0 0 1013.7 0.0000 0.1000
14:50 11.4 7.9 79 0 0 1013.7 0.0000 0.1000
15:01 11.3 7.8 79 0 0 1013.7 0.0000 0.1000
15:11 11.1 7.6 79 0 0 1013.7 0.0000 0.1000
15:36 10.7 7.4 80 0 0 1013.4 0.0000 0.1000
15:46 10.4 7.3 81 0 0 1013.5 0.0000 0.1000
15:56 10.2 7.1 81 0 0 1013.3 0.0000 0.1000
16:06 10 7.1 82 0 0 1013.4 0.0000 0.1000
16:16 9.9 7.2 83 0 0 1013.4 0.0000 0.1000
16:26 9.7 7 83 0 0 1013.5 0.0000 0.1000
16:36 9.6 7 84 0 0 1013.3 0.0000 0.1000
16:46 9.4 6.8 84 0 0 1013.4 0.0000 0.1000
16:57 9.3 6.9 85 0 0 1013.3 0.0000 0.1000
17:06 9.2 6.8 85 0 0 1013.2 0.0000 0.1000
17:16 9.1 6.9 86 0 0 1013.2 0.0000 0.1000
17:27 9 6.8 86 0 0 1013.4 0.0000 0.1000
17:37 8.9 6.7 86 0 0 1013.5 0.0000 0.1000
17:47 8.7 6.3 85 0 0 1013.6 0.0000 0.1000
17:57 8.6 6.2 85 0 0 1013.4 0.0000 0.1000
18:07 8.4 6 85 0 0 1013.5 0.0000 0.1000
18:17 8.2 5.8 85 0 0 1013.4 0.0000 0.1000
18:27 8.1 5.7 85 0 0 1013.2 0.0000 0.1000
18:43 7.7 5.5 86 0 0 1012.9 0.0000 0.1000
18:52 7.5 5.5 87 0 0 1012.8 0.0000 0.1000
19:02 7.3 5.3 87 0 0 1013 0.0000 0.1000
19:13 7.2 5.3 88 0 0 1012.8 0.0000 0.1000
19:23 7.1 5.2 88 0 0 1012.7 0.0000 0.1000
19:33 7.1 5.4 89 0 0 1012.8 0.0000 0.1000
19:43 7.1 5.4 89 0 0 1012.9 0.0000 0.1000
19:53 7.2 5.5 89 0 0 1012.9 0.0000 0.1000
20:03 7.2 5.5 89 0 0 1012.9 0.0000 0.1000
20:13 7.3 5.6 89 0 0 1012.7 0.0000 0.1000
20:23 7.3 5.8 90 0 0 1012.6 0.0000 0.1000
20:33 7.3 5.8 90 0 0 1012.6 0.0000 0.1000
20:48 7.5 6 90 0 0 1012.4 0.0000 0.1000
20:59 7.6 6.1 90 0 0 1012.2 0.0000 0.1000
21:09 7.6 6.1 90 0 0 1012.2 0.0000 0.1000
21:24 7.7 6.2 90 0 0 1011.9 0.0000 0.1000
21:34 7.8 6.3 90 0 0 1011.9 0.0000 0.1000
21:54 7.8 6.1 89 0 0 1011.7 0.0000 0.1000
22:15 7.8 6.3 90 0 0 1011.4 0.0000 0.1000
22:24 7.7 6.2 90 0 0 1011.2 0.1010 0.2000
22:44 7.6 6.1 90 0 0 1010.9 0.1010 0.2000
22:55 7.7 6.2 90 0 0 1010.8 0.1010 0.2000
23:05 7.7 6.2 90 0 0 1010.7 0.1010 0.2000
23:15 7.7 6.2 90 0 0 1010.6 0.0000 0.2000
23:25 7.8 6.4 91 0 0 1010.5 0.2020 0.4000
23:37 7.8 6.4 91 0 0 1010.5 0.3030 0.5000
23:48 7.8 6.6 92 0 0 1010.4 0.4040 0.6000

СТАТИСТИКА ЗА ДЕНЬ

2020-01-26
TЕМПЕРАТУРА
СРЕДНЯЯ
6.6
МАКСИМАЛЬНАЯ
11.9
13:44
МИНИМАЛЬНАЯ
2.1
08:46
ДАВЛЕНИЕ
СРЕДНЯЯ
1014.7
МАКСИМАЛЬНАЯ
1018.6
00:08
МИНИМАЛЬНАЯ
1010.4
23:48
ТОЧКА РОСЫ
СРЕДНЯЯ
5.1
МАКСИМАЛЬНАЯ
8.3
11:48
МИНИМАЛЬНАЯ
1.5
08:46
ВЛАЖНОСТЬ
СРЕДНЯЯ
90
МАКСИМАЛЬНАЯ
97
00:08
МИНИМАЛЬНАЯ
77
12:59
СКОРОСТЬ ВЕТРА
СРЕДНЯЯ
0.0
МАКСИМАЛЬНАЯ
0.0
15:49
WIND GUST
СРЕДНЯЯ
0.0
МАКСИМАЛЬНАЯ
0.0
15:49
НАПРАВЛЕНИЕ ВЕТРА
PREVAILING
%
ОСАДКИ
КОЛИЧЕСТВО ОСАДКОВ В ЧАС
0.4
КОЛИЧЕСТВО ОСАДКОВ В ДЕНЬ
0.6
TЕМПЕРАТУРА (°C)
МИНИМАЛЬНАЯ
2.1
МАКСИМАЛЬНАЯ
11.9
СРЕДНЯЯ
6.6
ДАВЛЕНИЕ (hpa)
МИНИМАЛЬНАЯ
1010.4
МАКСИМАЛЬНАЯ
1018.6
СРЕДНЯЯ
1014.7
УСТРОЙСТВО